createdAt,value
2017-08-10T00:00:19.285Z,22.10
2017-08-10T00:02:46.793Z,22.00
2017-08-10T00:05:14.294Z,22.10
2017-08-10T00:07:41.812Z,22.00
2017-08-10T00:10:09.314Z,22.00
2017-08-10T00:12:36.825Z,22.00
2017-08-10T00:15:04.341Z,21.90
2017-08-10T00:17:31.858Z,21.90
2017-08-10T00:19:59.353Z,21.90
2017-08-10T00:22:26.854Z,21.90
2017-08-10T00:24:54.373Z,21.90
2017-08-10T00:27:21.871Z,21.90
2017-08-10T00:29:49.393Z,21.90
2017-08-10T00:32:16.899Z,21.80
2017-08-10T00:34:44.413Z,21.80
2017-08-10T00:37:11.909Z,21.80
2017-08-10T00:39:39.417Z,21.80
2017-08-10T00:42:06.914Z,21.80
2017-08-10T00:44:35.198Z,21.80
2017-08-10T00:47:02.690Z,21.80
2017-08-10T00:49:30.190Z,21.80
2017-08-10T00:51:57.706Z,21.80
2017-08-10T00:54:25.205Z,21.80
2017-08-10T00:56:52.726Z,21.80
2017-08-10T00:59:20.220Z,21.80
2017-08-10T01:01:47.738Z,21.80
2017-08-10T01:04:15.237Z,21.80
2017-08-10T01:06:42.753Z,21.80
2017-08-10T01:09:10.245Z,21.80
2017-08-10T01:11:37.770Z,21.80
2017-08-10T01:14:05.269Z,21.80
2017-08-10T01:16:32.810Z,21.80
2017-08-10T01:19:00.312Z,21.80
2017-08-10T01:21:27.814Z,21.70
2017-08-10T01:23:55.330Z,21.70
2017-08-10T01:26:22.826Z,21.70
2017-08-10T01:28:50.342Z,21.70
2017-08-10T01:31:17.837Z,21.70
2017-08-10T01:33:45.354Z,21.70
2017-08-10T01:36:12.846Z,21.70
2017-08-10T01:38:41.125Z,21.60
2017-08-10T01:41:08.614Z,21.60
2017-08-10T01:43:36.125Z,21.60
2017-08-10T01:46:03.629Z,21.60
2017-08-10T01:48:31.118Z,21.50
2017-08-10T01:50:58.625Z,21.50
2017-08-10T01:53:26.114Z,21.50
2017-08-10T01:55:53.625Z,21.40
2017-08-10T01:58:21.121Z,21.40
2017-08-10T02:00:48.638Z,21.40
2017-08-10T02:03:16.131Z,21.40
2017-08-10T02:05:43.647Z,21.30
2017-08-10T02:08:11.143Z,21.30
2017-08-10T02:10:38.662Z,21.30
2017-08-10T02:13:06.157Z,21.30
2017-08-10T02:15:33.649Z,21.30
2017-08-10T02:18:01.159Z,21.20
2017-08-10T02:20:29.423Z,21.20
2017-08-10T02:22:57.728Z,21.10
2017-08-10T02:25:25.230Z,21.10
2017-08-10T02:27:52.747Z,21.10
2017-08-10T02:30:20.245Z,21.10
2017-08-10T02:32:47.757Z,21.10
2017-08-10T02:35:16.010Z,21.10
2017-08-10T02:37:43.527Z,21.10
2017-08-10T02:40:11.022Z,21.10
2017-08-10T02:42:38.513Z,21.00
2017-08-10T02:45:06.035Z,21.10
2017-08-10T02:47:33.533Z,21.10
2017-08-10T02:50:01.045Z,21.10
2017-08-10T02:52:28.533Z,21.00
2017-08-10T02:54:56.811Z,21.00
2017-08-10T02:57:24.307Z,21.00
2017-08-10T02:59:51.819Z,21.00
2017-08-10T03:02:19.306Z,21.00
2017-08-10T03:04:46.822Z,20.90
2017-08-10T03:07:14.313Z,20.90
2017-08-10T03:09:41.821Z,20.90
2017-08-10T03:12:09.338Z,20.90
2017-08-10T03:14:36.829Z,20.80
2017-08-10T03:17:04.333Z,20.80
2017-08-10T03:19:32.598Z,20.80
2017-08-10T03:22:00.124Z,20.80
2017-08-10T03:24:27.618Z,20.80
2017-08-10T03:26:55.155Z,20.80
2017-08-10T03:29:22.637Z,20.70
2017-08-10T03:31:50.126Z,20.70
2017-08-10T03:34:17.638Z,20.70
2017-08-10T03:36:45.125Z,20.70
2017-08-10T03:39:13.406Z,20.70
2017-08-10T03:41:41.670Z,20.60
2017-08-10T03:44:09.177Z,20.60
2017-08-10T03:46:36.683Z,20.60
2017-08-10T03:49:04.219Z,20.60
2017-08-10T03:51:31.714Z,20.50
2017-08-10T03:53:59.977Z,20.50
2017-08-10T03:56:27.491Z,20.50
2017-08-10T03:58:54.983Z,20.50
2017-08-10T04:01:22.498Z,20.50
2017-08-10T04:03:49.989Z,20.50
2017-08-10T04:06:17.494Z,20.50
2017-08-10T04:08:45.751Z,20.50
2017-08-10T04:11:13.266Z,20.40
2017-08-10T04:13:40.753Z,20.50
2017-08-10T04:16:08.250Z,20.50
2017-08-10T04:18:35.765Z,20.50
2017-08-10T04:21:03.262Z,20.50
2017-08-10T04:23:31.546Z,20.40
2017-08-10T04:25:59.033Z,20.40
2017-08-10T04:28:26.550Z,20.40
2017-08-10T04:30:54.810Z,20.40
2017-08-10T04:33:22.321Z,20.40
2017-08-10T04:35:49.823Z,20.40
2017-08-10T04:38:17.314Z,20.40
2017-08-10T04:40:44.834Z,20.30
2017-08-10T04:43:12.329Z,20.30
2017-08-10T04:45:39.841Z,20.30
2017-08-10T04:48:07.335Z,20.30
2017-08-10T04:50:35.614Z,20.30
2017-08-10T04:53:03.869Z,20.40
2017-08-10T04:55:31.401Z,20.30
2017-08-10T04:57:58.894Z,20.40
2017-08-10T05:00:26.386Z,20.40
2017-08-10T05:02:53.902Z,20.40
2017-08-10T05:05:21.394Z,20.40
2017-08-10T05:07:49.671Z,20.40
2017-08-10T05:10:17.930Z,20.40
2017-08-10T05:12:46.213Z,20.40
2017-08-10T05:15:14.478Z,20.40
2017-08-10T05:17:41.993Z,20.40
2017-08-10T05:20:09.490Z,20.40
2017-08-10T05:22:36.980Z,20.40
2017-08-10T05:25:04.494Z,20.40
2017-08-10T05:27:31.981Z,20.40
2017-08-10T05:30:00.262Z,20.40
2017-08-10T05:32:28.521Z,20.40
2017-08-10T05:34:56.038Z,20.40
2017-08-10T05:37:23.531Z,20.50
2017-08-10T05:39:51.042Z,20.50
2017-08-10T05:42:18.538Z,20.40
2017-08-10T05:44:46.053Z,20.50
2017-08-10T05:47:13.546Z,20.50
2017-08-10T05:49:46.780Z,20.40
2017-08-10T05:52:15.042Z,20.40
2017-08-10T05:54:42.535Z,20.40
2017-08-10T05:57:10.045Z,20.40
2017-08-10T05:59:37.539Z,20.40
2017-08-10T06:02:05.813Z,20.50
2017-08-10T06:04:33.310Z,20.40
2017-08-10T06:07:00.818Z,20.50
2017-08-10T06:09:28.314Z,20.50
2017-08-10T06:11:55.834Z,20.50
2017-08-10T06:14:23.322Z,20.60
2017-08-10T06:16:50.838Z,20.60
2017-08-10T06:19:18.331Z,20.60
2017-08-10T06:21:46.615Z,20.70
2017-08-10T06:24:14.111Z,20.70
2017-08-10T06:26:41.629Z,20.70
2017-08-10T06:29:09.125Z,20.70
2017-08-10T06:31:36.619Z,20.70
2017-08-10T06:34:04.130Z,20.70
2017-08-10T06:36:31.626Z,20.70
2017-08-10T06:38:59.133Z,20.80
2017-08-10T06:41:26.630Z,20.80
2017-08-10T06:43:54.143Z,20.80
2017-08-10T06:46:22.146Z,20.80
2017-08-10T06:48:49.667Z,20.90
2017-08-10T06:51:17.925Z,20.90
2017-08-10T06:53:46.210Z,20.90
2017-08-10T06:56:14.471Z,20.90
2017-08-10T06:58:41.978Z,20.90
2017-08-10T07:01:09.478Z,21.00
2017-08-10T07:03:37.011Z,21.00
2017-08-10T07:06:04.506Z,21.00
2017-08-10T07:08:32.022Z,21.00
2017-08-10T07:10:59.514Z,21.00
2017-08-10T07:13:27.038Z,21.00
2017-08-10T07:15:54.529Z,21.00
2017-08-10T07:18:22.026Z,21.00
2017-08-10T07:20:50.307Z,21.10
2017-08-10T07:23:17.801Z,21.10
2017-08-10T07:25:45.322Z,21.10
2017-08-10T07:28:12.822Z,21.10
2017-08-10T07:30:40.338Z,21.20
2017-08-10T07:33:08.602Z,21.20
2017-08-10T07:35:36.881Z,21.20
2017-08-10T07:38:05.146Z,21.30
2017-08-10T07:40:32.686Z,21.30
2017-08-10T07:43:00.181Z,21.30
2017-08-10T07:45:28.482Z,21.30
2017-08-10T07:47:55.979Z,21.30
2017-08-10T07:50:23.477Z,21.40
2017-08-10T07:52:51.774Z,21.40
2017-08-10T07:55:19.265Z,21.30
2017-08-10T07:57:46.782Z,21.40
2017-08-10T08:00:14.282Z,21.30
2017-08-10T08:02:41.799Z,21.30
2017-08-10T08:05:09.298Z,21.30
2017-08-10T08:07:36.805Z,21.30
2017-08-10T08:10:04.294Z,21.30
2017-08-10T08:12:31.810Z,21.30
2017-08-10T08:14:59.311Z,21.30
2017-08-10T08:17:26.822Z,21.30
2017-08-10T08:19:54.315Z,21.30
2017-08-10T08:22:21.830Z,21.30
2017-08-10T08:24:49.323Z,21.30
2017-08-10T08:27:17.582Z,21.30
2017-08-10T08:29:45.863Z,21.30
2017-08-10T08:32:14.126Z,21.30
2017-08-10T08:34:41.641Z,21.30
2017-08-10T08:37:09.138Z,21.30
2017-08-10T08:39:36.656Z,21.30
2017-08-10T08:42:04.158Z,21.30
2017-08-10T08:44:31.673Z,21.30
2017-08-10T08:46:59.186Z,21.30
2017-08-10T08:49:26.697Z,21.20
2017-08-10T08:51:54.214Z,21.20
2017-08-10T08:54:22.504Z,21.20
2017-08-10T08:56:50.022Z,21.20
2017-08-10T08:59:17.509Z,21.20
2017-08-10T09:01:45.789Z,21.20
2017-08-10T09:04:14.046Z,21.20
2017-08-10T09:06:41.563Z,21.20
2017-08-10T09:09:09.054Z,21.20
2017-08-10T09:11:36.565Z,21.20
2017-08-10T09:14:04.067Z,21.10
2017-08-10T09:16:31.577Z,21.20
2017-08-10T09:18:59.074Z,21.20
2017-08-10T09:21:26.598Z,21.10
2017-08-10T09:23:54.095Z,21.10
2017-08-10T09:26:21.598Z,21.10
2017-08-10T09:28:49.881Z,21.10
2017-08-10T09:31:17.378Z,21.00
2017-08-10T09:33:44.889Z,21.10
2017-08-10T09:36:13.154Z,21.10
2017-08-10T09:38:41.437Z,21.10
2017-08-10T09:41:08.939Z,21.10
2017-08-10T09:43:36.467Z,21.10
2017-08-10T09:46:04.730Z,21.20
2017-08-10T09:48:33.017Z,21.20
2017-08-10T09:51:00.526Z,21.20
2017-08-10T09:53:28.053Z,21.20
2017-08-10T09:55:55.555Z,21.20
2017-08-10T09:58:23.098Z,21.20
2017-08-10T10:00:50.590Z,21.20
2017-08-10T10:03:18.085Z,21.20
2017-08-10T10:05:45.597Z,21.20
2017-08-10T10:08:13.098Z,21.20
2017-08-10T10:10:40.621Z,21.20
2017-08-10T10:13:08.118Z,21.30
2017-08-10T10:15:35.641Z,21.30
2017-08-10T10:18:03.134Z,21.30
2017-08-10T10:20:30.658Z,21.30
2017-08-10T10:22:58.154Z,21.30
2017-08-10T10:25:25.674Z,21.30
2017-08-10T10:27:53.167Z,21.30
2017-08-10T10:30:20.689Z,21.30
2017-08-10T10:32:48.190Z,21.30
2017-08-10T10:35:15.719Z,21.40
2017-08-10T10:37:43.214Z,21.40
2017-08-10T10:40:10.713Z,21.50
2017-08-10T10:42:38.236Z,21.50
2017-08-10T10:45:05.730Z,21.40
2017-08-10T10:47:33.248Z,21.50
2017-08-10T10:50:00.754Z,21.50
2017-08-10T10:52:28.276Z,21.50
2017-08-10T10:54:55.774Z,21.60
2017-08-10T10:57:23.294Z,21.60
2017-08-10T10:59:50.806Z,21.70
2017-08-10T11:02:18.326Z,21.70
2017-08-10T11:04:45.825Z,21.70
2017-08-10T11:07:13.343Z,21.70
2017-08-10T11:09:40.846Z,21.70
2017-08-10T11:12:08.382Z,21.70
2017-08-10T11:14:35.878Z,21.80
2017-08-10T11:17:04.139Z,21.80
2017-08-10T11:19:32.426Z,21.80
2017-08-10T11:22:00.700Z,21.80
2017-08-10T11:24:28.977Z,21.80
2017-08-10T11:26:57.242Z,21.80
2017-08-10T11:29:24.754Z,21.80
2017-08-10T11:31:52.258Z,21.80
2017-08-10T11:34:19.786Z,21.80
2017-08-10T11:36:47.281Z,21.80
2017-08-10T11:39:14.793Z,21.80
2017-08-10T11:41:42.289Z,21.80
2017-08-10T11:44:09.802Z,21.80
2017-08-10T11:46:37.310Z,21.80
2017-08-10T11:49:04.827Z,21.80
2017-08-10T11:51:32.326Z,21.80
2017-08-10T11:53:59.822Z,21.70
2017-08-10T11:56:27.338Z,21.70
2017-08-10T11:58:54.838Z,21.80
2017-08-10T12:01:22.354Z,21.80
2017-08-10T12:03:49.849Z,21.80
2017-08-10T12:06:17.367Z,21.80
2017-08-10T12:08:44.868Z,21.80
2017-08-10T12:11:12.386Z,21.80
2017-08-10T12:13:39.880Z,21.80
2017-08-10T12:16:08.166Z,21.90
2017-08-10T12:18:35.658Z,21.90
2017-08-10T12:21:03.169Z,21.90
2017-08-10T12:23:31.430Z,21.90
2017-08-10T12:25:58.976Z,21.90
2017-08-10T12:28:26.479Z,21.90
2017-08-10T12:30:53.978Z,21.90
2017-08-10T12:33:21.497Z,21.90
2017-08-10T12:35:48.990Z,21.90
2017-08-10T12:38:16.501Z,21.90
2017-08-10T12:40:44.761Z,21.80
2017-08-10T12:43:12.277Z,21.80
2017-08-10T12:45:39.770Z,21.80
2017-08-10T12:48:07.291Z,21.80
2017-08-10T12:50:34.782Z,21.80
2017-08-10T12:53:02.294Z,21.80
2017-08-10T12:55:29.785Z,21.80
2017-08-10T12:57:57.303Z,21.80
2017-08-10T13:00:24.802Z,21.80
2017-08-10T13:02:52.297Z,21.80
2017-08-10T13:05:20.579Z,21.70
2017-08-10T13:07:48.842Z,21.70
2017-08-10T13:10:16.354Z,21.70
2017-08-10T13:12:43.850Z,21.70
2017-08-10T13:15:11.369Z,21.70
2017-08-10T13:17:38.866Z,21.60
2017-08-10T13:20:06.386Z,21.60
2017-08-10T13:22:33.891Z,21.60
2017-08-10T13:25:01.418Z,21.50
2017-08-10T13:27:28.914Z,21.50
2017-08-10T13:29:56.439Z,21.50
2017-08-10T13:32:23.954Z,21.40
2017-08-10T13:34:52.214Z,21.40
2017-08-10T13:37:20.502Z,21.40
2017-08-10T13:39:48.770Z,21.30
2017-08-10T13:42:16.290Z,21.30
2017-08-10T13:44:43.799Z,21.30
2017-08-10T13:47:12.084Z,21.20
2017-08-10T13:49:39.582Z,21.20
2017-08-10T13:52:07.098Z,21.20
2017-08-10T13:54:34.597Z,21.20
2017-08-10T13:57:02.115Z,21.20
2017-08-10T13:59:29.622Z,21.10
2017-08-10T14:01:57.135Z,21.10
2017-08-10T14:04:24.658Z,21.10
2017-08-10T14:06:52.158Z,21.00
2017-08-10T14:09:19.678Z,21.00
2017-08-10T14:11:47.174Z,21.00
2017-08-10T14:14:14.690Z,20.90
2017-08-10T14:16:42.189Z,20.90
2017-08-10T14:19:09.710Z,20.90
2017-08-10T14:21:37.210Z,20.80
2017-08-10T14:24:05.566Z,20.80
2017-08-10T14:26:33.830Z,20.80
2017-08-10T14:29:01.354Z,20.80
2017-08-10T14:31:28.854Z,20.70
2017-08-10T14:33:56.353Z,20.70
2017-08-10T14:36:23.865Z,20.60
2017-08-10T14:38:51.366Z,20.60
2017-08-10T14:41:18.882Z,20.60
2017-08-10T14:43:46.378Z,20.60
2017-08-10T14:46:13.893Z,20.60
2017-08-10T14:48:41.390Z,20.60
2017-08-10T14:51:08.910Z,20.60
2017-08-10T14:53:37.198Z,20.60
2017-08-10T14:56:04.714Z,20.60
2017-08-10T14:58:32.202Z,20.60
2017-08-10T15:00:59.715Z,20.50
2017-08-10T15:03:27.215Z,20.50
2017-08-10T15:05:54.734Z,20.40
2017-08-10T15:08:22.221Z,20.30
2017-08-10T15:10:49.722Z,20.20
2017-08-10T15:13:18.002Z,20.00
2017-08-10T15:15:46.267Z,19.90
2017-08-10T15:18:13.782Z,19.90
2017-08-10T15:20:41.279Z,19.80
2017-08-10T15:23:08.790Z,19.60
2017-08-10T15:25:36.282Z,19.50
2017-08-10T15:28:03.807Z,19.40
2017-08-10T15:30:31.298Z,19.30
2017-08-10T15:32:58.806Z,19.20
2017-08-10T15:35:26.298Z,19.20
2017-08-10T15:37:53.790Z,19.10
2017-08-10T15:40:21.306Z,18.90
2017-08-10T15:42:48.798Z,18.80
2017-08-10T15:45:16.309Z,18.70
2017-08-10T15:47:43.802Z,18.70
2017-08-10T15:50:11.313Z,18.60
2017-08-10T15:52:38.806Z,18.50
2017-08-10T15:55:06.322Z,18.50
2017-08-10T15:57:34.581Z,18.30
2017-08-10T16:00:02.086Z,18.30
2017-08-10T16:02:29.580Z,18.20
2017-08-10T16:04:57.102Z,18.10
2017-08-10T16:07:24.602Z,18.10
2017-08-10T16:09:52.094Z,18.10
2017-08-10T16:12:20.366Z,18.00
2017-08-10T16:14:48.636Z,18.00
2017-08-10T16:17:16.922Z,18.00
2017-08-10T16:19:44.462Z,17.90
2017-08-10T16:22:11.979Z,17.90
2017-08-10T16:24:39.470Z,17.80
2017-08-10T16:27:06.982Z,17.80
2017-08-10T16:29:34.478Z,17.80
2017-08-10T16:32:01.985Z,17.70
2017-08-10T16:34:29.472Z,17.70
2017-08-10T16:36:56.986Z,17.70
2017-08-10T16:39:25.250Z,17.70
2017-08-10T16:41:52.794Z,17.70
2017-08-10T16:44:20.290Z,17.60
2017-08-10T16:46:47.782Z,17.60
2017-08-10T16:49:15.294Z,17.60
2017-08-10T16:51:43.551Z,17.50
2017-08-10T16:54:11.054Z,17.50
2017-08-10T16:56:38.546Z,17.50
2017-08-10T16:59:06.066Z,17.50
2017-08-10T17:01:33.557Z,17.50
2017-08-10T17:04:01.070Z,17.50
2017-08-10T17:06:29.333Z,17.40
2017-08-10T17:08:57.622Z,17.40
2017-08-10T17:11:25.110Z,17.40
2017-08-10T17:13:52.602Z,17.40
2017-08-10T17:16:20.109Z,17.30
2017-08-10T17:18:47.601Z,17.30
2017-08-10T17:21:15.113Z,17.30
2017-08-10T17:23:43.380Z,17.30
2017-08-10T17:26:10.890Z,17.30
2017-08-10T17:28:38.382Z,17.30
2017-08-10T17:31:05.900Z,17.30
2017-08-10T17:33:33.401Z,17.30
2017-08-10T17:36:00.910Z,17.30
2017-08-10T17:38:28.397Z,17.20
2017-08-10T17:40:55.913Z,17.20
2017-08-10T17:43:23.402Z,17.20
2017-08-10T17:45:50.894Z,17.20
2017-08-10T17:48:18.410Z,17.20
2017-08-10T17:50:45.909Z,17.20
2017-08-10T17:53:13.422Z,17.20
2017-08-10T17:55:40.910Z,17.20
2017-08-10T17:58:08.419Z,17.20
2017-08-10T18:00:36.682Z,17.10
2017-08-10T18:03:04.189Z,17.10
2017-08-10T18:05:31.686Z,17.20
2017-08-10T18:07:59.202Z,17.10
2017-08-10T18:10:26.693Z,17.10
2017-08-10T18:12:54.213Z,17.10
2017-08-10T18:15:21.714Z,17.00
2017-08-10T18:17:49.210Z,17.00
2017-08-10T18:20:16.730Z,17.00
2017-08-10T18:22:44.222Z,17.00
2017-08-10T18:25:12.498Z,17.00
2017-08-10T18:27:40.762Z,17.00
2017-08-10T18:30:08.265Z,16.90
2017-08-10T18:32:35.753Z,16.90
2017-08-10T18:35:03.262Z,17.00
2017-08-10T18:37:30.753Z,17.00
2017-08-10T18:39:58.267Z,17.00
2017-08-10T18:42:26.522Z,16.90
2017-08-10T18:44:54.039Z,16.90
2017-08-10T18:47:21.535Z,16.90
2017-08-10T18:49:49.054Z,16.90
2017-08-10T18:52:16.547Z,16.90
2017-08-10T18:54:44.038Z,16.90
2017-08-10T18:57:12.309Z,16.80
2017-08-10T18:59:40.561Z,16.80
2017-08-10T19:02:08.070Z,16.80
2017-08-10T19:04:35.558Z,16.90
2017-08-10T19:07:03.075Z,16.90
2017-08-10T19:09:31.330Z,16.90
2017-08-10T19:11:58.841Z,16.90
2017-08-10T19:14:26.325Z,16.90
2017-08-10T19:16:53.835Z,16.90
2017-08-10T19:19:21.326Z,16.90
2017-08-10T19:21:48.847Z,16.80
2017-08-10T19:24:16.342Z,16.80
2017-08-10T19:26:43.834Z,16.80
2017-08-10T19:29:11.346Z,16.80
2017-08-10T19:31:38.838Z,16.80
2017-08-10T19:34:06.354Z,16.80
2017-08-10T19:36:33.842Z,16.80
2017-08-10T19:39:01.349Z,16.80
2017-08-10T19:41:29.602Z,16.80
2017-08-10T19:43:57.110Z,16.80
2017-08-10T19:46:24.607Z,16.80
2017-08-10T19:48:52.117Z,16.80
2017-08-10T19:51:19.602Z,16.80
2017-08-10T19:53:47.118Z,16.80
2017-08-10T19:56:15.370Z,16.80
2017-08-10T19:58:42.876Z,16.70
2017-08-10T20:01:10.378Z,16.70
2017-08-10T20:03:37.865Z,16.70
2017-08-10T20:06:06.146Z,16.70
2017-08-10T20:08:34.406Z,16.70
2017-08-10T20:11:01.922Z,16.70
2017-08-10T20:13:29.417Z,16.70
2017-08-10T20:15:56.925Z,16.70
2017-08-10T20:18:24.413Z,16.70
2017-08-10T20:20:51.922Z,16.70
2017-08-10T20:23:19.428Z,16.70
2017-08-10T20:25:46.937Z,16.70
2017-08-10T20:28:15.198Z,16.70
2017-08-10T20:30:43.465Z,16.70
2017-08-10T20:33:10.974Z,16.70
2017-08-10T20:35:38.471Z,16.70
2017-08-10T20:38:05.981Z,16.70
2017-08-10T20:40:33.476Z,16.60
2017-08-10T20:43:00.982Z,16.60
2017-08-10T20:45:29.238Z,16.60
2017-08-10T20:47:56.747Z,16.60
2017-08-10T20:50:24.234Z,16.60
2017-08-10T20:52:51.751Z,16.60
2017-08-10T20:55:19.242Z,16.60
2017-08-10T20:57:46.753Z,16.60
2017-08-10T21:00:15.014Z,16.60
2017-08-10T21:02:42.526Z,16.60
2017-08-10T21:05:10.029Z,16.60
2017-08-10T21:07:37.521Z,16.60
2017-08-10T21:10:05.034Z,16.50
2017-08-10T21:12:32.521Z,16.60
2017-08-10T21:15:00.798Z,16.60
2017-08-10T21:17:28.291Z,16.50
2017-08-10T21:19:55.798Z,16.60
2017-08-10T21:22:23.286Z,16.50
2017-08-10T21:24:50.797Z,16.50
2017-08-10T21:27:18.286Z,16.50
2017-08-10T21:29:46.538Z,16.50
2017-08-10T21:32:14.047Z,16.50
2017-08-10T21:34:41.539Z,16.50
2017-08-10T21:37:09.050Z,16.50
2017-08-10T21:39:37.306Z,16.60
2017-08-10T21:42:04.818Z,16.50
2017-08-10T21:44:32.314Z,16.60
2017-08-10T21:46:59.817Z,16.60
2017-08-10T21:49:27.314Z,16.60
2017-08-10T21:51:54.821Z,16.60
2017-08-10T21:54:22.318Z,16.60
2017-08-10T21:56:49.831Z,16.60
2017-08-10T21:59:18.090Z,16.60
2017-08-10T22:01:45.608Z,16.60
2017-08-10T22:04:13.097Z,16.60
2017-08-10T22:06:40.587Z,16.60
2017-08-10T22:09:08.098Z,16.60
2017-08-10T22:11:35.595Z,16.70
2017-08-10T22:14:03.878Z,16.70
2017-08-10T22:16:32.133Z,16.70
2017-08-10T22:18:59.637Z,16.70
2017-08-10T22:21:27.134Z,16.70
2017-08-10T22:23:54.641Z,16.70
2017-08-10T22:26:22.145Z,16.70
2017-08-10T22:28:49.654Z,16.70
2017-08-10T22:31:17.147Z,16.70
2017-08-10T22:33:44.658Z,16.70
2017-08-10T22:36:12.913Z,16.70
2017-08-10T22:38:40.422Z,16.70
2017-08-10T22:41:07.909Z,16.70
2017-08-10T22:43:35.398Z,16.70
2017-08-10T22:46:02.906Z,16.70
2017-08-10T22:48:30.402Z,16.70
2017-08-10T22:50:57.938Z,16.70
2017-08-10T22:53:25.430Z,16.70
2017-08-10T22:55:52.942Z,16.70
2017-08-10T22:58:20.434Z,16.70
2017-08-10T23:00:47.941Z,16.70
2017-08-10T23:03:15.429Z,16.70
2017-08-10T23:05:42.942Z,16.70
2017-08-10T23:08:11.201Z,16.60
2017-08-10T23:10:38.710Z,16.60
2017-08-10T23:13:06.203Z,16.60
2017-08-10T23:15:33.722Z,16.60
2017-08-10T23:18:01.213Z,16.60
2017-08-10T23:20:28.710Z,16.60
2017-08-10T23:22:56.990Z,16.60
2017-08-10T23:25:25.241Z,16.60
2017-08-10T23:27:52.745Z,16.60
2017-08-10T23:30:20.238Z,16.60
2017-08-10T23:32:47.758Z,16.50
2017-08-10T23:35:15.246Z,16.50
2017-08-10T23:37:42.762Z,16.50
2017-08-10T23:40:11.023Z,16.50
2017-08-10T23:42:38.542Z,16.50
2017-08-10T23:45:06.033Z,16.50
2017-08-10T23:47:33.548Z,16.50
2017-08-10T23:50:01.042Z,16.50
2017-08-10T23:52:28.533Z,16.50
2017-08-10T23:54:56.041Z,16.50
2017-08-10T23:57:23.542Z,16.40
2017-08-10T23:59:51.823Z,16.40
